Time;durP1;ratioP1;P1;durP2;ratioP2;P2;SDS_P1;SDS_P2;PMS_P1;PMS_P2;Temp;Humidity;BMP_temperature;BMP_pressure;BME280_temperature;BME280_humidity;BME280_pressure;Samples;Min_cycle;Max_cycle;Signal;HPM_P1;HPM_P2
2023/10/10 00:03:39;;;;;;;3.15;1.10;;;;;;;6.61;83.55;100724.53;10413029;28;20042;-75
2023/10/10 00:08:43;;;;;;;3.17;1.00;;;;;;;6.88;83.29;100771.50;10412798;28;20428;-76
2023/10/10 00:13:43;;;;;;;4.85;1.08;;;;;;;6.28;83.56;100668.44;10412841;28;20053;-76
2023/10/10 00:18:44;;;;;;;4.18;1.13;;;;;;;6.95;83.64;100779.72;10412360;28;20043;-75
2023/10/10 00:23:47;;;;;;;2.28;0.90;;;;;;;6.73;83.33;100727.91;10412732;28;20042;-75
2023/10/10 00:28:58;;;;;;;5.82;1.50;;;;;;;7.13;82.85;100785.19;10412124;28;20037;-75
2023/10/10 00:33:59;;;;;;;2.42;0.98;;;;;;;7.15;83.03;100791.16;10411856;28;20412;-76
2023/10/10 00:44:15;;;;;;;9.43;4.10;;;;;;;7.17;83.19;100770.72;10411924;28;20041;-76
2023/10/10 00:49:17;;;;;;;3.27;1.60;;;;;;;6.85;83.19;100732.97;10418915;28;20049;-76
2023/10/10 00:59:35;;;;;;;3.35;0.90;;;;;;;7.07;82.36;100760.16;10419474;28;20042;-76
2023/10/10 01:04:48;;;;;;;2.05;0.70;;;;;;;6.93;82.18;100739.38;10418720;28;20046;-75
2023/10/10 01:10:07;;;;;;;2.57;0.67;;;;;;;6.95;82.30;100734.81;10418560;28;20131;-76
2023/10/10 01:15:24;;;;;;;2.95;0.75;;;;;;;6.85;82.29;100727.69;10418910;28;20055;-75
2023/10/10 01:20:34;;;;;;;1.88;0.70;;;;;;;6.59;82.63;100708.00;10418834;28;20038;-76
2023/10/10 01:30:56;;;;;;;2.40;0.77;;;;;;;6.79;82.30;100752.00;10417748;28;20030;-75
2023/10/10 01:36:02;;;;;;;2.17;0.80;;;;;;;6.68;82.76;100741.53;10418124;28;20077;-76
2023/10/10 01:41:14;;;;;;;3.85;0.80;;;;;;;6.60;82.53;100736.06;10417905;28;20041;-76
2023/10/10 01:46:19;;;;;;;4.55;0.90;;;;;;;6.42;83.15;100724.47;10417929;28;20053;-76
2023/10/10 01:51:20;;;;;;;4.63;1.08;;;;;;;6.38;83.38;100750.28;10417802;28;20041;-76
2023/10/10 01:56:27;;;;;;;8.73;0.95;;;;;;;6.36;83.64;100760.13;10417143;28;20516;-76
2023/10/10 02:01:27;;;;;;;6.63;1.40;;;;;;;6.35;83.69;100759.28;10416355;28;20110;-76
2023/10/10 02:06:29;;;;;;;6.45;0.90;;;;;;;6.55;83.53;100762.88;10415407;28;20041;-75
2023/10/10 02:11:31;;;;;;;6.35;1.30;;;;;;;6.55;83.33;100769.94;10416950;28;20064;-76
2023/10/10 02:16:39;;;;;;;1.30;0.55;;;;;;;6.53;83.50;100778.00;10417084;28;20052;-76
2023/10/10 02:21:48;;;;;;;4.10;0.98;;;;;;;6.48;84.02;100740.59;10416192;28;20053;-75
2023/10/10 02:26:51;;;;;;;7.25;0.77;;;;;;;6.77;82.94;100767.13;10415475;28;20033;-75
2023/10/10 02:32:29;;;;;;;4.40;0.90;;;;;;;6.55;83.00;100748.81;10414185;28;20053;-75
2023/10/10 02:42:20;;;;;;;4.95;0.85;;;;;;;6.47;83.20;100781.16;10412945;28;20041;-72
2023/10/10 02:47:30;;;;;;;7.82;1.10;;;;;;;5.89;83.85;100709.53;10415364;28;20045;-75
2023/10/10 02:52:31;;;;;;;2.90;0.93;;;;;;;5.99;83.09;100731.59;10415218;28;20045;-75
2023/10/10 02:57:39;;;;;;;1.85;0.77;;;;;;;6.31;82.79;100789.56;10413792;28;20041;-75
2023/10/10 03:02:40;;;;;;;9.27;1.20;;;;;;;6.29;82.71;100774.81;10414691;28;20044;-75
2023/10/10 03:07:42;;;;;;;39.03;3.92;;;;;;;6.43;82.83;100792.94;10413879;28;20057;-75
2023/10/10 03:12:48;;;;;;;10.55;1.15;;;;;;;6.43;83.79;100807.94;10412992;28;20056;-75
2023/10/10 03:18:04;;;;;;;8.85;1.13;;;;;;;6.38;84.14;100801.25;10413882;28;20567;-75
2023/10/10 03:28:18;;;;;;;24.33;1.60;;;;;;;6.18;85.12;100788.91;10413650;28;20119;-75
2023/10/10 03:33:36;;;;;;;37.35;3.28;;;;;;;5.62;85.51;100707.41;10414030;28;20452;-74
2023/10/10 05:25:41;;;;;;;4.10;1.30;;;;;;;8.99;79.63;100909.44;10573506;28;20123;-77
2023/10/10 05:30:45;;;;;;;11.23;1.73;;;;;;;9.25;79.04;100909.66;10573389;28;20157;-77
2023/10/10 05:35:49;;;;;;;3.40;1.65;;;;;;;9.37;78.49;100895.22;10572526;28;20415;-77
2023/10/10 05:40:51;;;;;;;5.77;1.63;;;;;;;9.37;78.32;100881.97;10572792;28;20452;-77
2023/10/10 05:45:53;;;;;;;5.15;1.10;;;;;;;9.68;77.53;100913.47;10572083;28;20567;-77
2023/10/10 05:50:54;;;;;;;3.35;1.00;;;;;;;9.91;76.09;100911.25;10571960;28;20044;-77
2023/10/10 05:55:58;;;;;;;3.30;0.90;;;;;;;9.77;74.16;100862.19;10551710;28;20113;-77
2023/10/10 06:00:59;;;;;;;4.25;1.40;;;;;;;10.29;73.15;100920.81;10530367;28;20439;-76
2023/10/10 06:06:03;;;;;;;3.28;0.88;;;;;;;10.22;72.03;100856.78;10526649;28;20531;-76
2023/10/10 06:11:06;;;;;;;3.22;1.05;;;;;;;10.61;70.86;100883.03;10501695;28;20412;-76
2023/10/10 06:16:14;;;;;;;5.65;1.08;;;;;;;10.75;68.88;100865.69;10501448;28;20074;-76
2023/10/10 06:21:16;;;;;;;5.82;1.30;;;;;;;11.24;69.45;100911.16;10501374;28;20043;-76
2023/10/10 06:26:21;;;;;;;3.20;1.00;;;;;;;11.51;68.81;100896.81;10501423;28;20086;-77
2023/10/10 06:31:33;;;;;;;20.20;2.85;;;;;;;11.78;67.70;100882.44;10500546;28;20068;-76
2023/10/10 06:36:35;;;;;;;4.55;1.60;;;;;;;12.18;66.57;100854.25;10501041;28;20407;-77
2023/10/10 06:41:38;;;;;;;2.42;1.00;;;;;;;12.49;65.34;100858.91;10500600;28;20033;-76
2023/10/10 06:46:40;;;;;;;3.63;1.70;;;;;;;12.46;63.00;100812.09;10499822;28;20040;-78
2023/10/10 06:51:41;;;;;;;53.70;30.52;;;;;;;12.84;61.93;100846.19;10500220;28;20032;-77
2023/10/10 06:56:44;;;;;;;9.10;4.70;;;;;;;12.91;59.80;100796.50;10499989;28;20056;-77
2023/10/10 07:01:45;;;;;;;5.32;1.63;;;;;;;13.57;59.18;100855.78;10499211;28;20094;-76
2023/10/10 07:06:47;;;;;;;2.72;1.15;;;;;;;13.80;58.08;100843.28;10500142;28;20101;-76
2023/10/10 07:11:49;;;;;;;2.30;0.90;;;;;;;13.78;57.86;100855.16;10498882;28;20566;-76
2023/10/10 07:16:54;;;;;;;5.15;1.08;;;;;;;13.64;57.03;100800.66;10499068;28;20045;-79
2023/10/10 07:21:54;;;;;;;3.03;1.17;;;;;;;13.82;56.30;100792.34;10498270;28;20506;-77
2023/10/10 07:27:13;;;;;;;6.38;1.38;;;;;;;13.31;56.62;100778.69;10481390;28;20040;-76
2023/10/10 07:32:28;;;;;;;3.95;0.88;;;;;;;13.25;57.30;100822.88;10498435;28;20500;-77
2023/10/10 07:37:29;;;;;;;2.85;1.00;;;;;;;13.55;56.09;100802.56;10497669;28;20048;-76
2023/10/10 07:42:30;;;;;;;3.65;1.15;;;;;;;13.41;55.66;100761.44;10498087;28;20535;-77
2023/10/10 07:48:20;;;;;;;4.05;0.95;;;;;;;13.70;55.14;100759.94;10498028;28;20047;-77
2023/10/10 07:52:54;;;;;;;1.70;1.00;;;;;;;14.22;54.97;100782.38;10496866;28;20040;-77
2023/10/10 07:57:55;;;;;;;3.95;0.90;;;;;;;14.33;53.51;100752.53;10497404;28;20302;-77
2023/10/10 08:02:56;;;;;;;5.40;1.15;;;;;;;14.30;53.37;100743.03;10496820;28;20048;-77
2023/10/10 08:07:57;;;;;;;3.60;1.25;;;;;;;14.41;54.01;100789.03;10496385;28;20413;-77
2023/10/10 08:13:00;;;;;;;9.25;1.20;;;;;;;14.19;54.48;100798.75;10496988;28;20037;-76
2023/10/10 08:18:01;;;;;;;10.15;1.20;;;;;;;14.08;55.29;100784.81;10496223;28;20045;-77
2023/10/10 08:23:04;;;;;;;2.38;1.00;;;;;;;13.97;55.45;100795.94;10496960;28;20048;-77
2023/10/10 08:28:06;;;;;;;3.55;1.35;;;;;;;13.84;56.44;100791.19;10496708;28;20105;-77
2023/10/10 08:33:06;;;;;;;6.50;1.00;;;;;;;14.06;56.10;100760.13;10495511;28;20098;-78
2023/10/10 08:38:07;;;;;;;3.13;1.20;;;;;;;14.39;54.87;100749.97;10478262;28;20041;-77
2023/10/10 08:43:09;;;;;;;4.13;1.20;;;;;;;14.98;54.44;100751.81;10496353;28;20044;-77
2023/10/10 08:48:13;;;;;;;3.80;0.90;;;;;;;15.46;52.00;100757.50;10496479;28;20445;-77
2023/10/10 08:53:14;;;;;;;2.55;0.85;;;;;;;15.57;50.54;100728.56;10495948;28;20415;-77
2023/10/10 08:58:15;;;;;;;4.90;1.15;;;;;;;15.36;50.80;100684.72;10495982;28;20110;-77
2023/10/10 09:03:16;;;;;;;4.57;1.00;;;;;;;15.90;50.47;100719.00;10495710;28;20079;-77
2023/10/10 09:08:18;;;;;;;3.38;0.82;;;;;;;16.09;48.66;100722.03;10496448;28;20560;-77
2023/10/10 09:13:19;;;;;;;5.00;1.20;;;;;;;16.17;48.32;100700.47;10495008;28;20175;-76
2023/10/10 09:18:25;;;;;;;5.28;1.10;;;;;;;15.51;48.61;100672.09;10494754;28;20136;-76
2023/10/10 09:23:28;;;;;;;5.50;1.20;;;;;;;15.41;48.41;100687.66;10494854;28;20047;-76
2023/10/10 09:28:43;;;;;;;3.00;0.95;;;;;;;15.20;48.26;100688.47;10495363;28;20518;-76
2023/10/10 09:33:45;;;;;;;4.93;1.70;;;;;;;14.94;49.69;100664.94;10494589;28;20557;-76
2023/10/10 09:39:08;;;;;;;4.82;1.33;;;;;;;14.94;48.53;100632.81;10494770;28;20048;-76
2023/10/10 09:44:30;;;;;;;3.03;0.98;;;;;;;15.12;48.70;100699.28;10500168;28;20127;-77
2023/10/10 09:49:51;;;;;;;4.45;1.00;;;;;;;14.84;49.14;100694.66;10502641;28;20037;-76
2023/10/10 09:54:56;;;;;;;4.65;0.75;;;;;;;14.97;49.58;100690.47;10501609;28;20113;-76
2023/10/10 09:59:57;;;;;;;2.72;0.80;;;;;;;14.97;49.35;100690.47;10483820;28;20043;-77
2023/10/10 10:04:59;;;;;;;2.30;1.02;;;;;;;14.96;49.45;100683.47;10502424;28;20135;-76
2023/10/10 10:10:09;;;;;;;2.90;0.88;;;;;;;14.99;48.80;100683.09;10501175;28;20093;-76
2023/10/10 10:15:24;;;;;;;5.53;1.25;;;;;;;15.18;49.64;100679.78;10501578;28;20117;-76
2023/10/10 10:20:33;;;;;;;3.70;1.05;;;;;;;15.25;49.41;100666.47;10500944;28;20068;-76
2023/10/10 10:25:36;;;;;;;3.33;1.10;;;;;;;14.90;49.91;100626.22;10500740;28;20128;-76
2023/10/10 10:30:47;;;;;;;3.30;1.05;;;;;;;14.92;49.20;100639.38;10500547;28;20036;-76
2023/10/10 10:36:29;;;;;;;8.77;1.27;;;;;;;14.84;51.15;100659.88;10500290;28;20048;-76
2023/10/10 10:41:17;;;;;;;4.75;1.00;;;;;;;14.44;51.71;100613.06;10486872;28;20045;-76
2023/10/10 10:46:37;;;;;;;4.05;1.25;;;;;;;14.35;51.52;100648.94;10500494;28;20052;-76
2023/10/10 10:51:47;;;;;;;3.30;1.33;;;;;;;13.89;50.95;100601.03;10499677;28;20032;-76
2023/10/10 10:56:49;;;;;;;6.18;1.27;;;;;;;13.78;51.88;100590.81;10499142;28;20063;-76
2023/10/10 11:01:57;;;;;;;4.20;1.30;;;;;;;13.92;52.19;100611.34;10500713;28;20511;-76
2023/10/10 11:07:05;;;;;;;6.13;4.20;;;;;;;14.21;52.05;100647.94;10498969;28;20072;-76
2023/10/10 11:12:06;;;;;;;7.80;2.10;;;;;;;14.10;52.30;100627.84;10498808;28;20420;-76
2023/10/10 11:17:17;;;;;;;4.97;1.20;;;;;;;14.10;51.98;100643.88;10498579;28;20434;-76
2023/10/10 11:27:44;;;;;;;3.97;1.70;;;;;;;13.50;53.15;100591.41;10498754;28;20032;-76
2023/10/10 11:32:47;;;;;;;5.30;1.13;;;;;;;13.50;53.54;100596.75;10498527;28;20044;-77
2023/10/10 11:37:59;;;;;;;4.57;1.30;;;;;;;13.46;53.69;100595.44;10498534;28;20392;-77
2023/10/10 11:43:04;;;;;;;5.03;1.30;;;;;;;13.82;54.01;100656.16;10498360;28;20032;-76
2023/10/10 11:48:13;;;;;;;3.40;1.20;;;;;;;13.74;54.42;100650.94;10498037;28;20048;-76
2023/10/10 11:53:24;;;;;;;5.32;1.77;;;;;;;13.38;54.65;100592.88;10497680;28;20032;-77
2023/10/10 11:58:35;;;;;;;6.50;1.20;;;;;;;13.50;54.62;100622.63;10497537;28;20139;-76
2023/10/10 12:08:45;;;;;;;11.52;1.83;;;;;;;13.46;55.34;100579.44;10496948;28;20571;-76
2023/10/10 12:13:51;;;;;;;6.88;1.60;;;;;;;13.71;54.91;100614.75;10478624;28;20174;-77
2023/10/10 12:18:52;;;;;;;8.23;1.75;;;;;;;13.42;55.25;100556.78;10496919;28;20123;-77
2023/10/10 12:23:55;;;;;;;12.15;2.28;;;;;;;13.67;55.83;100608.94;10495732;28;20028;-75
2023/10/10 12:28:56;;;;;;;5.80;1.73;;;;;;;13.58;54.95;100599.34;10491079;28;20052;-77
2023/10/10 12:33:57;;;;;;;8.68;2.10;;;;;;;13.30;55.02;100559.06;10495253;28;20043;-75
2023/10/10 12:38:59;;;;;;;9.20;1.95;;;;;;;13.13;55.12;100521.03;10495473;28;20071;-76
2023/10/10 12:44:00;;;;;;;15.68;2.13;;;;;;;13.42;54.75;100588.81;10497108;28;20488;-76
2023/10/10 12:49:00;;;;;;;14.23;2.30;;;;;;;13.38;55.67;100583.00;10495399;28;20056;-76
2023/10/10 12:54:05;;;;;;;9.43;1.80;;;;;;;13.21;56.57;100576.13;10495002;28;20418;-76
2023/10/10 12:59:07;;;;;;;8.15;2.10;;;;;;;13.35;56.27;100607.38;10496427;28;20056;-76
2023/10/10 13:04:10;;;;;;;6.13;1.77;;;;;;;13.07;57.11;100568.91;10496015;28;20417;-76
2023/10/10 13:09:14;;;;;;;11.13;1.98;;;;;;;13.27;58.57;100617.28;10495343;28;20041;-75
2023/10/10 13:14:18;;;;;;;10.52;2.20;;;;;;;13.09;58.90;100596.22;10494958;28;20514;-75
2023/10/10 13:19:20;;;;;;;40.30;3.33;;;;;;;13.14;59.64;100610.69;10500548;28;20044;-76
2023/10/10 13:24:24;;;;;;;29.65;2.33;;;;;;;12.99;60.64;100615.13;10503074;28;20036;-77
2023/10/10 13:29:24;;;;;;;27.65;3.03;;;;;;;12.92;62.50;100616.84;10500732;28;20075;-75
2023/10/10 13:34:25;;;;;;;57.08;4.93;;;;;;;12.89;63.96;100619.84;10503633;28;20064;-75
2023/10/10 13:39:40;;;;;;;49.00;4.50;;;;;;;12.66;64.23;100583.34;10485089;28;20403;-75
2023/10/10 13:44:42;;;;;;;33.17;3.75;;;;;;;12.73;64.44;100610.94;10502854;28;20044;-76
2023/10/10 13:49:45;;;;;;;30.80;4.28;;;;;;;12.72;65.77;100614.63;10502138;28;20041;-75
2023/10/10 13:54:46;;;;;;;52.27;4.70;;;;;;;12.71;66.19;100609.47;10501610;28;20431;-76
2023/10/10 13:59:49;;;;;;;45.63;4.68;;;;;;;12.59;66.94;100619.69;10501559;28;20033;-76
2023/10/10 14:04:50;;;;;;;24.00;3.63;;;;;;;12.49;67.26;100617.25;10501590;28;20051;-75
2023/10/10 14:09:51;;;;;;;34.15;4.03;;;;;;;12.42;68.61;100628.78;10483453;28;20105;-75
2023/10/10 14:14:52;;;;;;;18.65;3.90;;;;;;;12.01;69.14;100576.47;10501615;28;20127;-75
2023/10/10 14:19:52;;;;;;;30.27;5.22;;;;;;;12.15;70.18;100611.41;10501823;28;20499;-75
2023/10/10 14:24:53;;;;;;;29.15;11.73;;;;;;;11.79;71.31;100578.03;10501298;28;20076;-74
2023/10/10 14:29:54;;;;;;;41.90;8.68;;;;;;;11.99;72.52;100623.72;10499061;28;20036;-75
2023/10/10 14:34:54;;;;;;;27.30;5.45;;;;;;;11.94;74.30;100633.25;10502017;28;20044;-75
2023/10/10 14:39:57;;;;;;;15.95;3.10;;;;;;;11.80;75.52;100648.06;10500765;28;20105;-75
2023/10/10 14:44:58;;;;;;;8.98;2.15;;;;;;;11.68;74.73;100657.38;10500909;28;20097;-76
2023/10/10 14:50:06;;;;;;;12.43;2.00;;;;;;;11.64;73.44;100655.06;10499660;28;20102;-75
2023/10/10 14:55:23;;;;;;;8.43;1.77;;;;;;;10.92;74.16;100561.81;10500080;28;20056;-75
2023/10/10 15:00:27;;;;;;;9.43;1.75;;;;;;;11.11;77.29;100643.06;10482054;28;20045;-75
2023/10/10 15:05:28;;;;;;;6.43;1.92;;;;;;;11.27;78.42;100691.94;10499793;28;20523;-76
2023/10/10 15:10:29;;;;;;;6.80;2.17;;;;;;;10.77;80.31;100652.94;10499342;28;20037;-75
2023/10/10 15:15:31;;;;;;;14.70;2.50;;;;;;;10.89;81.57;100696.84;10498831;28;20049;-75
2023/10/10 15:20:32;;;;;;;4.90;1.67;;;;;;;10.93;82.35;100716.78;10499066;28;20045;-76
2023/10/10 15:25:33;;;;;;;4.93;1.80;;;;;;;10.72;82.22;100685.31;10498901;28;20499;-75
2023/10/10 15:30:36;;;;;;;4.45;1.65;;;;;;;10.84;82.23;100707.13;10498686;28;20044;-75
2023/10/10 15:35:39;;;;;;;12.93;2.10;;;;;;;10.79;83.05;100731.50;10498694;28;20040;-76
2023/10/10 15:40:40;;;;;;;22.73;2.45;;;;;;;10.75;83.71;100724.84;10497448;28;20097;-76
2023/10/10 15:45:44;;;;;;;6.22;2.22;;;;;;;10.72;86.35;100730.50;10497370;28;20127;-76
2023/10/10 15:50:46;;;;;;;4.70;1.92;;;;;;;10.68;85.40;100737.97;10497930;28;20411;-78
2023/10/10 15:56:12;;;;;;;5.32;2.33;;;;;;;10.51;87.09;100737.03;10494792;28;20091;-74
2023/10/10 16:01:14;;;;;;;6.15;1.95;;;;;;;10.52;86.26;100751.13;10496415;28;20106;-79
2023/10/10 16:06:18;;;;;;;8.10;2.17;;;;;;;10.50;88.32;100759.28;10476653;28;20044;-75
2023/10/10 16:11:20;;;;;;;6.18;1.73;;;;;;;10.18;88.88;100729.84;10498077;28;20036;-75
2023/10/10 16:16:21;;;;;;;9.40;2.63;;;;;;;10.25;89.44;100760.91;10497496;28;20090;-76
2023/10/10 16:21:21;;;;;;;7.85;2.60;;;;;;;10.33;90.10;100793.88;10496601;28;20479;-72
2023/10/10 16:26:22;;;;;;;11.18;4.15;;;;;;;9.96;90.68;100750.59;10496456;28;20043;-90
2023/10/10 16:31:31;;;;;;;14.15;5.07;;;;;;;10.19;91.59;100798.69;10497032;28;20045;-84
2023/10/10 16:36:32;;;;;;;12.55;5.47;;;;;;;10.11;92.72;100809.28;10485507;28;20085;-87
2023/10/10 16:41:34;;;;;;;13.60;6.50;;;;;;;10.24;93.72;100838.91;10482412;28;20076;-76
2023/10/10 16:46:35;;;;;;;16.42;6.95;;;;;;;10.21;94.32;100825.09;10495923;28;20044;-78
2023/10/10 16:51:35;;;;;;;15.38;6.43;;;;;;;9.75;95.46;100758.00;10473329;28;20040;-87
2023/10/10 16:56:36;;;;;;;10.30;5.15;;;;;;;10.19;95.73;100827.91;10487018;28;20052;-76
2023/10/10 17:01:38;;;;;;;25.92;5.40;;;;;;;9.99;96.07;100799.84;10485996;28;20160;-80
2023/10/10 17:06:42;;;;;;;20.70;5.97;;;;;;;10.19;96.90;100822.59;10491910;28;20411;-75
2023/10/10 17:11:50;;;;;;;16.67;5.37;;;;;;;10.17;97.76;100813.09;10493411;28;20045;-75
2023/10/10 17:16:50;;;;;;;17.67;5.30;;;;;;;10.07;98.34;100806.06;10494380;28;20054;-76
2023/10/10 17:21:51;;;;;;;14.15;4.65;;;;;;;9.73;98.66;100760.00;10494281;28;20055;-74
2023/10/10 17:26:53;;;;;;;8.07;4.22;;;;;;;10.02;99.11;100803.06;10492782;28;20048;-90
2023/10/10 17:31:54;;;;;;;8.80;4.10;;;;;;;10.06;98.74;100809.72;10489613;28;20036;-78
2023/10/10 17:36:57;;;;;;;11.32;3.85;;;;;;;9.92;98.90;100791.66;10490451;28;20098;-73
2023/10/10 17:41:59;;;;;;;9.38;3.65;;;;;;;10.06;98.94;100817.69;10492301;28;20044;-72
2023/10/10 17:47:00;;;;;;;7.78;3.80;;;;;;;9.99;98.79;100810.47;10476957;28;20040;-72
2023/10/10 17:52:15;;;;;;;7.53;4.07;;;;;;;9.84;99.12;100783.63;10492338;28;20418;-81
2023/10/10 19:52:40;;;;;;;;;;;;;;;;;;;;;
